Time;durP1;ratioP1;P1;durP2;ratioP2;P2;SDS_P1;SDS_P2;PMS_P1;PMS_P2;Temp;Humidity;BMP_temperature;BMP_pressure;BME280_temperature;BME280_humidity;BME280_pressure;Samples;Min_cycle;Max_cycle;Signal;HPM_P1;HPM_P2
2021/10/19 00:01:57;;;;;;;17.67;9.27;;;10.00;67.40;;;;;;6273936;22;20004;-66
2021/10/19 00:04:23;;;;;;;13.93;8.88;;;10.00;67.40;;;;;;6272562;22;20004;-66
2021/10/19 00:06:50;;;;;;;13.48;9.35;;;10.00;67.40;;;;;;6273702;22;20010;-67
2021/10/19 00:09:15;;;;;;;16.92;9.02;;;10.00;67.50;;;;;;6274126;22;20026;-67
2021/10/19 00:11:41;;;;;;;10.93;8.40;;;10.00;67.50;;;;;;6272400;22;19993;-67
2021/10/19 00:14:08;;;;;;;12.07;8.38;;;9.90;67.40;;;;;;6273876;22;20022;-66
2021/10/19 00:16:34;;;;;;;11.07;8.07;;;9.90;67.30;;;;;;6273992;22;19995;-67
2021/10/19 00:19:00;;;;;;;17.48;7.90;;;9.90;67.30;;;;;;6274362;22;20015;-66
2021/10/19 00:21:26;;;;;;;13.88;8.40;;;9.80;67.20;;;;;;6272242;22;20087;-66
2021/10/19 00:23:52;;;;;;;13.82;7.80;;;9.80;67.20;;;;;;6273999;22;20439;-66
2021/10/19 00:26:18;;;;;;;11.98;8.20;;;9.80;67.10;;;;;;6273962;22;20008;-67
2021/10/19 00:28:44;;;;;;;13.23;8.80;;;9.80;67.20;;;;;;6274040;22;20004;-66
2021/10/19 00:31:10;;;;;;;13.57;8.20;;;9.70;67.80;;;;;;6273884;22;20404;-67
2021/10/19 00:33:35;;;;;;;15.95;8.30;;;9.70;67.20;;;;;;6273868;22;20026;-67
2021/10/19 00:36:01;;;;;;;13.10;9.05;;;9.70;67.20;;;;;;6273891;22;20423;-66
2021/10/19 00:38:27;;;;;;;15.27;9.85;;;9.70;67.30;;;;;;6273911;22;19995;-67
2021/10/19 00:40:53;;;;;;;16.10;10.77;;;9.60;67.60;;;;;;6273802;22;20006;-67
2021/10/19 00:43:19;;;;;;;15.38;10.40;;;9.60;68.00;;;;;;6274094;22;20000;-67
2021/10/19 00:45:45;;;;;;;15.40;10.93;;;9.60;68.30;;;;;;6273902;22;20045;-67
2021/10/19 00:48:15;;;;;;;23.58;10.25;;;9.60;68.30;;;;;;6273797;22;20011;-68
2021/10/19 00:50:41;;;;;;;14.95;9.73;;;9.60;68.30;;;;;;6273930;22;20007;-67
2021/10/19 00:53:07;;;;;;;19.02;9.27;;;9.60;68.10;;;;;;6273792;22;20003;-67
2021/10/19 00:55:33;;;;;;;17.25;9.25;;;9.60;67.90;;;;;;6273908;22;20027;-66
2021/10/19 00:58:01;;;;;;;11.02;7.45;;;9.60;67.70;;;;;;6273798;22;20428;-67
2021/10/19 01:00:27;;;;;;;13.57;8.98;;;9.50;67.60;;;;;;6273623;22;20424;-67
2021/10/19 01:02:53;;;;;;;21.70;12.02;;;9.50;67.60;;;;;;6271826;22;20396;-66
2021/10/19 01:05:20;;;;;;;18.73;11.93;;;9.50;67.90;;;;;;6273572;22;20000;-67
2021/10/19 01:07:46;;;;;;;17.33;8.80;;;9.50;68.20;;;;;;6273833;22;20035;-68
2021/10/19 01:10:12;;;;;;;15.48;9.93;;;9.50;68.10;;;;;;6275988;22;20339;-67
2021/10/19 01:12:39;;;;;;;14.88;9.65;;;9.40;68.00;;;;;;6276587;22;20504;-67
2021/10/19 01:15:10;;;;;;;15.20;9.23;;;9.50;67.90;;;;;;6276897;22;20007;-67
2021/10/19 01:17:43;;;;;;;12.55;9.13;;;9.40;67.70;;;;;;6276969;22;20007;-68
2021/10/19 01:20:26;;;;;;;22.10;12.02;;;9.40;67.70;;;;;;6277318;22;20006;-68
2021/10/19 01:22:56;;;;;;;15.20;9.77;;;9.40;67.80;;;;;;6277062;22;20000;-68
2021/10/19 01:25:25;;;;;;;16.80;9.93;;;9.40;67.60;;;;;;6275199;22;20030;-67
2021/10/19 01:28:00;;;;;;;17.52;9.80;;;9.40;67.60;;;;;;6277015;22;20074;-68
2021/10/19 01:30:26;;;;;;;13.80;9.10;;;9.30;67.60;;;;;;6276733;22;19995;-68
2021/10/19 01:32:53;;;;;;;18.40;10.55;;;9.30;67.60;;;;;;6276891;22;20004;-68
2021/10/19 01:35:29;;;;;;;14.05;9.75;;;9.30;67.60;;;;;;6277287;22;19996;-68
2021/10/19 01:37:54;;;;;;;13.00;8.45;;;9.30;67.60;;;;;;6276988;22;20007;-67
2021/10/19 01:40:20;;;;;;;14.38;10.02;;;9.30;67.60;;;;;;6276885;22;20000;-67
2021/10/19 01:42:46;;;;;;;11.93;8.82;;;9.30;67.60;;;;;;6276691;22;19999;-67
2021/10/19 01:45:17;;;;;;;15.70;10.88;;;9.30;67.60;;;;;;6276806;22;20027;-68
2021/10/19 01:47:44;;;;;;;13.25;9.20;;;9.20;67.70;;;;;;6276588;22;20022;-68
2021/10/19 01:50:11;;;;;;;17.33;10.18;;;9.20;67.80;;;;;;6276819;22;20079;-68
2021/10/19 01:52:38;;;;;;;13.05;8.95;;;9.20;67.80;;;;;;6277237;22;20022;-66
2021/10/19 01:55:05;;;;;;;16.35;10.48;;;9.20;67.80;;;;;;6276612;22;19996;-68
2021/10/19 01:57:34;;;;;;;15.10;9.52;;;9.20;68.00;;;;;;6277315;22;20008;-68
2021/10/19 02:00:01;;;;;;;15.75;9.27;;;9.20;68.10;;;;;;6276641;22;20007;-67
2021/10/19 02:02:27;;;;;;;15.02;10.07;;;9.20;68.00;;;;;;6275277;22;20014;-67
2021/10/19 02:04:53;;;;;;;13.57;8.75;;;9.20;68.00;;;;;;6276649;22;20375;-68
2021/10/19 02:07:19;;;;;;;12.32;8.27;;;9.20;68.00;;;;;;6277223;22;20004;-67
2021/10/19 02:09:45;;;;;;;16.48;9.63;;;9.20;68.00;;;;;;6275458;22;20010;-68
2021/10/19 02:12:10;;;;;;;13.85;8.70;;;9.20;68.00;;;;;;6276624;22;20010;-68
2021/10/19 02:14:36;;;;;;;17.52;8.93;;;9.20;68.00;;;;;;6276894;22;20004;-67
2021/10/19 02:17:02;;;;;;;12.40;8.35;;;9.20;67.90;;;;;;6276588;22;20007;-68
2021/10/19 02:19:29;;;;;;;13.40;8.93;;;9.20;67.80;;;;;;6276910;22;20000;-68
2021/10/19 02:21:56;;;;;;;14.57;9.68;;;9.20;67.80;;;;;;6274759;22;20004;-68
2021/10/19 02:24:22;;;;;;;13.98;8.90;;;9.20;67.80;;;;;;6275313;22;20053;-68
2021/10/19 02:26:49;;;;;;;16.02;9.48;;;9.10;67.70;;;;;;6275168;22;20008;-68
2021/10/19 02:29:16;;;;;;;17.05;9.18;;;9.20;67.80;;;;;;6275110;22;20000;-68
2021/10/19 02:31:42;;;;;;;17.00;10.45;;;9.10;67.70;;;;;;6274796;22;20382;-68
2021/10/19 02:34:09;;;;;;;15.27;9.18;;;9.10;67.80;;;;;;6274902;22;20066;-68
2021/10/19 02:36:36;;;;;;;19.27;11.20;;;9.10;67.80;;;;;;6274851;22;20327;-67
2021/10/19 02:39:06;;;;;;;17.35;11.18;;;9.10;67.90;;;;;;6274886;22;20018;-67
2021/10/19 02:41:35;;;;;;;17.23;10.35;;;9.10;68.20;;;;;;6274935;22;20019;-69
2021/10/19 02:44:02;;;;;;;17.13;11.48;;;9.10;68.40;;;;;;6274738;22;20003;-68
2021/10/19 02:46:31;;;;;;;15.60;9.73;;;9.10;68.40;;;;;;6274757;22;20332;-67
2021/10/19 02:48:57;;;;;;;13.40;9.38;;;9.10;68.50;;;;;;6274879;22;19999;-68
2021/10/19 02:51:23;;;;;;;12.82;8.65;;;9.10;68.40;;;;;;6274817;22;20465;-67
2021/10/19 02:53:49;;;;;;;11.55;7.55;;;9.10;68.30;;;;;;6274344;22;20000;-68
2021/10/19 02:56:15;;;;;;;15.43;9.05;;;9.10;68.20;;;;;;6274319;22;20004;-67
2021/10/19 02:58:40;;;;;;;15.40;10.35;;;9.10;68.10;;;;;;6274681;22;20120;-67
2021/10/19 03:01:06;;;;;;;12.65;9.43;;;9.00;68.10;;;;;;6274222;22;20007;-68
2021/10/19 03:03:32;;;;;;;12.15;8.75;;;9.00;68.00;;;;;;6274433;22;20431;-67
2021/10/19 03:05:58;;;;;;;16.08;10.55;;;9.00;68.00;;;;;;6274369;22;20057;-65
2021/10/19 03:08:24;;;;;;;15.38;10.95;;;9.00;68.00;;;;;;6274332;22;20046;-68
2021/10/19 03:10:50;;;;;;;16.75;10.48;;;9.00;68.20;;;;;;6274683;22;20000;-67
2021/10/19 03:13:15;;;;;;;15.20;10.38;;;9.00;68.40;;;;;;6274509;22;20030;-67
2021/10/19 03:15:41;;;;;;;14.32;9.43;;;9.00;68.50;;;;;;6274580;22;19995;-68
2021/10/19 03:18:08;;;;;;;14.05;9.85;;;8.90;68.40;;;;;;6274628;22;20481;-67
2021/10/19 03:20:34;;;;;;;16.92;9.50;;;8.90;68.30;;;;;;6274551;22;20073;-67
2021/10/19 03:23:00;;;;;;;15.48;9.65;;;8.90;68.20;;;;;;6275329;22;20366;-67
2021/10/19 03:25:26;;;;;;;15.88;10.63;;;8.90;68.10;;;;;;6274398;22;20000;-68
2021/10/19 03:27:52;;;;;;;15.85;10.32;;;8.90;68.10;;;;;;6274271;22;20068;-67
2021/10/19 03:30:18;;;;;;;14.70;9.32;;;8.90;68.20;;;;;;6274200;22;20003;-68
2021/10/19 03:32:44;;;;;;;15.07;10.60;;;8.90;68.20;;;;;;6273605;22;20427;-67
2021/10/19 03:35:11;;;;;;;14.85;10.52;;;8.90;68.20;;;;;;6274249;22;20004;-65
2021/10/19 03:37:38;;;;;;;14.40;9.27;;;8.90;68.20;;;;;;6274386;22;20143;-68
2021/10/19 03:40:05;;;;;;;17.40;11.13;;;8.90;68.30;;;;;;6273824;22;20004;-68
2021/10/19 03:42:31;;;;;;;16.88;10.35;;;8.90;68.50;;;;;;6274200;22;20046;-66
2021/10/19 03:44:57;;;;;;;15.77;10.52;;;8.80;68.40;;;;;;6274177;22;20003;-66
2021/10/19 03:47:22;;;;;;;17.60;9.30;;;8.90;69.30;;;;;;6273686;22;20007;-67
2021/10/19 03:49:49;;;;;;;21.38;9.73;;;8.80;68.50;;;;;;6272225;22;20008;-67
2021/10/19 03:52:15;;;;;;;17.70;9.43;;;8.80;68.40;;;;;;6272248;22;20071;-66
2021/10/19 03:54:40;;;;;;;12.88;9.10;;;8.80;68.40;;;;;;6274109;22;20023;-67
2021/10/19 03:57:07;;;;;;;13.38;9.40;;;8.80;68.30;;;;;;6273791;22;20543;-67
2021/10/19 03:59:34;;;;;;;20.17;10.38;;;8.80;68.20;;;;;;6274078;22;20003;-67
2021/10/19 04:02:00;;;;;;;16.23;10.60;;;8.80;68.50;;;;;;6273916;22;20004;-66
2021/10/19 04:04:25;;;;;;;15.30;10.48;;;8.80;68.60;;;;;;6273620;22;20007;-67
2021/10/19 04:06:51;;;;;;;15.18;9.52;;;8.80;68.60;;;;;;6273605;22;20003;-68
2021/10/19 04:09:17;;;;;;;12.40;8.85;;;8.80;68.50;;;;;;6273277;22;20086;-69
2021/10/19 04:11:43;;;;;;;15.93;10.55;;;8.80;68.40;;;;;;6272303;22;20027;-68
2021/10/19 04:14:08;;;;;;;13.93;8.88;;;8.80;68.40;;;;;;6273296;22;20012;-65
2021/10/19 04:16:37;;;;;;;14.60;9.52;;;8.80;68.30;;;;;;6273500;22;20004;-66
2021/10/19 04:19:04;;;;;;;16.83;9.15;;;8.70;68.20;;;;;;6273670;22;20003;-66
2021/10/19 04:21:29;;;;;;;11.95;7.85;;;8.70;68.20;;;;;;6273766;22;20427;-66
2021/10/19 04:23:55;;;;;;;18.80;10.82;;;8.70;68.20;;;;;;6273719;22;20010;-66
2021/10/19 04:26:21;;;;;;;18.33;12.65;;;8.70;68.20;;;;;;6273610;22;20009;-66
2021/10/19 04:28:47;;;;;;;25.55;13.07;;;8.60;68.10;;;;;;6273626;22;20000;-66
2021/10/19 04:31:14;;;;;;;20.95;12.85;;;8.60;68.30;;;;;;6273459;22;19988;-66
2021/10/19 04:33:40;;;;;;;20.15;12.38;;;8.60;69.20;;;;;;6273886;22;20019;-67
2021/10/19 04:36:06;;;;;;;18.33;11.80;;;8.60;68.40;;;;;;6273591;22;20419;-66
2021/10/19 04:38:33;;;;;;;21.85;12.52;;;8.60;68.40;;;;;;6273799;22;20331;-67
2021/10/19 04:41:00;;;;;;;17.75;11.13;;;8.60;68.40;;;;;;6273321;22;19995;-67
2021/10/19 04:43:26;;;;;;;17.02;11.05;;;8.60;68.50;;;;;;6273391;22;20042;-66
2021/10/19 04:45:53;;;;;;;20.00;12.27;;;8.60;68.60;;;;;;6273471;22;19992;-67
2021/10/19 04:48:20;;;;;;;21.73;11.20;;;8.60;68.60;;;;;;6273470;22;20010;-66
2021/10/19 04:50:46;;;;;;;26.98;13.13;;;8.60;68.80;;;;;;6273453;22;19999;-67
2021/10/19 04:53:12;;;;;;;19.25;11.15;;;8.60;69.00;;;;;;6273836;22;20649;-66
2021/10/19 04:55:38;;;;;;;19.17;10.82;;;8.70;69.30;;;;;;6273395;22;19996;-67
2021/10/19 04:58:03;;;;;;;16.17;10.95;;;8.70;69.30;;;;;;6273548;22;20007;-67
2021/10/19 05:00:29;;;;;;;17.55;10.73;;;8.70;69.20;;;;;;6273427;22;20075;-66
2021/10/19 05:02:56;;;;;;;16.90;10.82;;;8.70;69.10;;;;;;6273458;22;20308;-67
2021/10/19 05:05:22;;;;;;;19.77;10.98;;;8.70;69.00;;;;;;6273572;22;19999;-66
2021/10/19 05:07:47;;;;;;;19.73;10.82;;;8.70;68.90;;;;;;6273049;22;20030;-66
2021/10/19 05:10:14;;;;;;;21.42;11.70;;;8.70;68.80;;;;;;6273335;22;19996;-66
2021/10/19 05:12:40;;;;;;;28.38;11.80;;;8.80;68.90;;;;;;6273342;22;20008;-66
2021/10/19 05:15:07;;;;;;;22.52;11.00;;;8.80;69.00;;;;;;6273454;22;20062;-67
2021/10/19 05:17:33;;;;;;;17.15;11.00;;;8.80;69.00;;;;;;6271245;22;20036;-66
2021/10/19 05:19:58;;;;;;;14.73;9.43;;;8.80;69.00;;;;;;6273273;22;20071;-67
2021/10/19 05:22:25;;;;;;;13.52;9.82;;;8.80;68.90;;;;;;6272341;22;20000;-67
2021/10/19 05:24:51;;;;;;;21.50;11.57;;;8.80;69.00;;;;;;6271996;22;20015;-66
2021/10/19 05:27:17;;;;;;;16.27;9.85;;;8.90;69.10;;;;;;6272870;22;20075;-67
2021/10/19 05:29:43;;;;;;;14.45;8.60;;;8.90;69.00;;;;;;6272972;22;20051;-67
2021/10/19 05:32:09;;;;;;;15.75;10.70;;;9.00;69.00;;;;;;6272805;22;20491;-67
2021/10/19 05:34:35;;;;;;;13.43;9.50;;;9.00;68.90;;;;;;6271488;22;20000;-66
2021/10/19 05:37:00;;;;;;;15.98;9.23;;;9.00;68.70;;;;;;6271494;22;20398;-67
2021/10/19 05:39:26;;;;;;;16.92;9.73;;;9.00;68.50;;;;;;6273219;22;20031;-67
2021/10/19 05:41:52;;;;;;;18.23;10.65;;;9.00;68.50;;;;;;6272938;22;20343;-66
2021/10/19 05:44:18;;;;;;;16.52;10.00;;;9.00;68.50;;;;;;6273297;22;20045;-66
2021/10/19 05:46:44;;;;;;;17.98;9.48;;;9.00;68.50;;;;;;6272041;22;20422;-67
2021/10/19 05:49:09;;;;;;;14.25;8.85;;;9.00;68.50;;;;;;6272797;22;20319;-68
2021/10/19 05:51:35;;;;;;;16.42;8.60;;;9.10;68.50;;;;;;6272786;22;20004;-68
2021/10/19 05:54:01;;;;;;;16.27;9.80;;;9.10;68.60;;;;;;6273423;22;20000;-68
2021/10/19 05:56:27;;;;;;;18.63;10.40;;;9.10;68.60;;;;;;6273729;22;20003;-68
2021/10/19 05:58:53;;;;;;;18.63;11.23;;;9.10;68.60;;;;;;6275243;22;20075;-66
2021/10/19 06:01:18;;;;;;;14.65;9.27;;;9.10;68.70;;;;;;6274445;22;20008;-67
2021/10/19 06:03:44;;;;;;;32.30;12.18;;;9.10;68.80;;;;;;6274939;22;20000;-67
2021/10/19 06:06:14;;;;;;;21.67;12.43;;;9.20;69.00;;;;;;6272892;22;20452;-68
2021/10/19 06:08:39;;;;;;;16.45;10.20;;;9.20;69.20;;;;;;6274181;22;19999;-67
2021/10/19 06:11:05;;;;;;;22.20;10.60;;;9.30;69.30;;;;;;6274077;22;20328;-68
2021/10/19 06:13:32;;;;;;;17.45;11.57;;;9.30;69.30;;;;;;6274724;22;20079;-66
2021/10/19 06:15:58;;;;;;;20.95;11.70;;;9.30;69.30;;;;;;6274080;22;20003;-67
2021/10/19 06:18:24;;;;;;;18.83;11.73;;;9.40;69.30;;;;;;6274820;22;20465;-68
2021/10/19 06:20:51;;;;;;;22.70;13.35;;;9.40;69.20;;;;;;6274472;22;20043;-67
2021/10/19 06:23:18;;;;;;;17.98;11.45;;;9.50;69.90;;;;;;6274753;22;20000;-67
2021/10/19 06:25:45;;;;;;;22.05;12.25;;;9.50;69.00;;;;;;6273120;22;20014;-67
2021/10/19 06:28:11;;;;;;;17.88;11.52;;;9.60;69.00;;;;;;6274412;22;20384;-68
2021/10/19 06:30:37;;;;;;;17.58;11.23;;;9.60;68.90;;;;;;6273096;22;20023;-68
2021/10/19 06:33:03;;;;;;;17.55;11.70;;;9.60;68.80;;;;;;6274438;22;20000;-68
2021/10/19 06:35:29;;;;;;;20.83;12.55;;;9.70;68.90;;;;;;6274487;22;19996;-67
2021/10/19 06:37:55;;;;;;;38.75;13.65;;;9.70;68.80;;;;;;6274459;22;20317;-67
2021/10/19 06:40:21;;;;;;;19.67;11.20;;;9.70;68.70;;;;;;6274375;22;20004;-68
2021/10/19 06:42:46;;;;;;;23.48;10.95;;;9.80;68.70;;;;;;6274366;22;20376;-68
2021/10/19 06:45:12;;;;;;;29.08;11.20;;;9.80;68.70;;;;;;6274737;22;20078;-67
2021/10/19 06:47:39;;;;;;;19.50;12.80;;;9.90;68.70;;;;;;6274601;22;20003;-67
2021/10/19 06:50:06;;;;;;;34.80;14.20;;;9.90;68.80;;;;;;6274622;22;19995;-68
2021/10/19 06:52:33;;;;;;;40.65;13.18;;;9.90;68.80;;;;;;6272751;22;20322;-68
2021/10/19 06:54:59;;;;;;;19.40;12.73;;;10.00;68.90;;;;;;6274666;22;20339;-67
2021/10/19 06:57:27;;;;;;;19.63;11.98;;;10.00;69.00;;;;;;6274596;22;20027;-67
2021/10/19 06:59:53;;;;;;;24.35;12.90;;;10.10;69.00;;;;;;6274481;22;20079;-66
2021/10/19 07:02:19;;;;;;;20.52;13.00;;;10.20;69.00;;;;;;6274465;22;19999;-67
2021/10/19 07:04:45;;;;;;;24.17;12.32;;;10.30;69.00;;;;;;6274424;22;20027;-67
2021/10/19 07:07:10;;;;;;;24.33;12.60;;;10.30;68.90;;;;;;6274116;22;20004;-67
2021/10/19 07:09:36;;;;;;;23.63;12.80;;;10.40;68.80;;;;;;6274496;22;20012;-67
2021/10/19 07:12:03;;;;;;;26.38;13.70;;;10.50;68.70;;;;;;6274207;22;20057;-67
2021/10/19 07:14:29;;;;;;;22.15;12.40;;;10.60;68.50;;;;;;6274527;22;20327;-67
2021/10/19 07:16:55;;;;;;;24.02;12.68;;;10.70;68.40;;;;;;6273957;22;20423;-67
2021/10/19 07:19:22;;;;;;;18.83;11.63;;;10.80;68.30;;;;;;6274336;22;20027;-66
2021/10/19 07:21:49;;;;;;;17.33;10.75;;;10.90;68.80;;;;;;6274409;22;19999;-67
2021/10/19 07:24:14;;;;;;;18.70;11.68;;;11.00;67.90;;;;;;6274539;22;20011;-67
2021/10/19 07:26:40;;;;;;;20.45;11.88;;;11.10;67.70;;;;;;6274404;22;20004;-67
2021/10/19 07:29:06;;;;;;;17.27;11.40;;;11.20;67.40;;;;;;6274333;22;20414;-67
2021/10/19 07:31:32;;;;;;;16.23;10.52;;;11.30;67.40;;;;;;6274445;22;20023;-67
2021/10/19 07:33:58;;;;;;;18.80;11.50;;;11.40;67.40;;;;;;6274244;22;20000;-67
2021/10/19 07:36:25;;;;;;;16.42;10.70;;;11.50;67.10;;;;;;6274350;22;20312;-67
2021/10/19 07:38:52;;;;;;;18.65;10.40;;;11.70;66.70;;;;;;6274314;22;20003;-67
2021/10/19 07:41:18;;;;;;;14.27;9.73;;;11.80;66.50;;;;;;6272491;22;20086;-68
2021/10/19 07:43:46;;;;;;;15.82;10.57;;;11.90;66.30;;;;;;6274251;22;20101;-67
2021/10/19 07:46:12;;;;;;;18.98;12.38;;;12.00;66.10;;;;;;6273740;22;20007;-67
2021/10/19 07:48:38;;;;;;;18.35;11.82;;;12.10;65.50;;;;;;6274410;22;20003;-67
2021/10/19 07:51:03;;;;;;;19.55;11.80;;;12.20;65.00;;;;;;6274118;22;20027;-67
2021/10/19 07:53:29;;;;;;;15.63;10.77;;;12.20;64.90;;;;;;6274575;22;20045;-66
2021/10/19 07:55:55;;;;;;;15.02;10.55;;;12.40;64.90;;;;;;6274235;22;20000;-67
2021/10/19 07:58:21;;;;;;;18.00;11.95;;;12.40;64.80;;;;;;6273980;22;20004;-67
2021/10/19 08:00:46;;;;;;;19.77;12.05;;;12.50;64.60;;;;;;6274687;22;20423;-67
2021/10/19 08:03:12;;;;;;;22.45;11.90;;;12.60;64.70;;;;;;6274233;22;20521;-67
2021/10/19 08:05:41;;;;;;;19.48;11.52;;;12.70;64.60;;;;;;6274152;22;20098;-67
2021/10/19 08:08:14;;;;;;;17.67;11.88;;;12.80;64.20;;;;;;6273193;22;20007;-68
2021/10/19 08:10:43;;;;;;;19.27;11.73;;;12.90;63.70;;;;;;6273665;22;20019;-68
2021/10/19 08:13:09;;;;;;;19.33;12.70;;;13.00;63.50;;;;;;6271912;22;20030;-65
2021/10/19 08:15:36;;;;;;;24.13;12.40;;;13.00;62.90;;;;;;6272039;22;20038;-67
2021/10/19 08:18:03;;;;;;;18.67;11.30;;;13.10;62.50;;;;;;6273913;22;20004;-67
2021/10/19 08:20:30;;;;;;;24.33;14.13;;;13.10;62.20;;;;;;6273881;22;20000;-67
2021/10/19 08:22:56;;;;;;;24.40;13.73;;;13.00;61.80;;;;;;6273984;22;20012;-68
2021/10/19 08:25:22;;;;;;;26.77;13.20;;;13.00;61.40;;;;;;6273492;22;20420;-67
2021/10/19 08:27:48;;;;;;;23.58;12.23;;;13.00;61.40;;;;;;6271956;22;20185;-67
2021/10/19 08:30:18;;;;;;;25.25;12.25;;;12.90;61.40;;;;;;6273425;22;20045;-67
2021/10/19 08:32:44;;;;;;;27.02;11.60;;;12.90;61.60;;;;;;6273723;22;19992;-68
2021/10/19 08:35:10;;;;;;;21.15;13.32;;;12.80;61.70;;;;;;6273919;22;20481;-68
2021/10/19 08:37:36;;;;;;;23.08;13.35;;;12.80;61.90;;;;;;6273790;22;19991;-68
2021/10/19 08:40:03;;;;;;;27.58;14.50;;;12.80;62.10;;;;;;6273874;22;20064;-68
2021/10/19 08:42:29;;;;;;;26.17;13.68;;;12.80;62.10;;;;;;6273762;22;20007;-68
2021/10/19 08:44:55;;;;;;;22.20;13.45;;;12.80;62.10;;;;;;6273751;22;19996;-68
2021/10/19 08:47:21;;;;;;;24.30;15.00;;;12.80;62.20;;;;;;6274009;22;20335;-68
2021/10/19 08:49:48;;;;;;;25.88;13.68;;;12.80;62.30;;;;;;6274731;22;20071;-69
2021/10/19 08:52:13;;;;;;;28.83;14.63;;;12.90;62.60;;;;;;6274630;22;20000;-68
2021/10/19 08:54:41;;;;;;;22.85;12.93;;;12.90;62.40;;;;;;6274876;22;20004;-68
2021/10/19 08:57:16;;;;;;;32.88;14.52;;;13.00;62.50;;;;;;6274328;22;20010;-69
2021/10/19 08:59:44;;;;;;;23.58;13.50;;;13.00;62.20;;;;;;6273330;22;20004;-68
2021/10/19 09:02:10;;;;;;;31.45;16.50;;;13.00;62.40;;;;;;6275008;22;20145;-68
2021/10/19 09:04:36;;;;;;;30.08;16.48;;;13.10;62.40;;;;;;6274116;22;20011;-69
2021/10/19 09:07:02;;;;;;;23.23;14.55;;;13.10;62.40;;;;;;6274800;22;20323;-68
2021/10/19 09:09:29;;;;;;;29.42;15.95;;;13.20;62.50;;;;;;6273245;22;20007;-68
2021/10/19 09:11:57;;;;;;;27.52;16.05;;;13.30;62.40;;;;;;6274631;22;20023;-68
2021/10/19 09:14:34;;;;;;;49.13;20.13;;;13.40;62.30;;;;;;6274845;22;20003;-68
2021/10/19 09:17:01;;;;;;;38.78;17.77;;;13.40;61.70;;;;;;6274603;22;19999;-68
2021/10/19 09:19:28;;;;;;;37.33;17.15;;;13.60;61.80;;;;;;6274769;22;20000;-68
2021/10/19 09:21:59;;;;;;;46.20;20.38;;;13.70;61.70;;;;;;6274729;22;19996;-68
2021/10/19 09:24:34;;;;;;;41.95;21.48;;;13.80;61.30;;;;;;6274782;22;20011;-68
2021/10/19 09:27:28;;;;;;;;;;;13.90;60.80;;;;;;6275098;22;20011;-68
2021/10/19 09:29:54;;;;;;;35.20;17.13;;;13.90;62.40;;;;;;6241519;23;19901;-68
2021/10/19 09:32:20;;;;;;;43.22;20.80;;;14.00;60.80;;;;;;6217837;23;20001;-68
2021/10/19 09:34:48;;;;;;;42.05;20.63;;;14.00;60.60;;;;;;6243269;23;20007;-68
2021/10/19 09:37:19;;;;;;;42.10;22.40;;;14.10;60.60;;;;;;6243135;23;20054;-68
2021/10/19 09:39:48;;;;;;;60.55;26.80;;;14.10;60.50;;;;;;6242793;23;19996;-70
2021/10/19 09:42:25;;;;;;;49.67;22.27;;;14.20;60.20;;;;;;6217749;23;20008;-70
2021/10/19 09:45:00;;;;;;;43.75;23.92;;;14.20;60.40;;;;;;6243258;23;20006;-70
2021/10/19 09:47:26;;;;;;;;;;;14.30;60.30;;;;;;6243785;23;20004;-70
2021/10/19 09:49:54;;;;;;;47.80;24.33;;;14.30;61.00;;;;;;6242805;23;19926;-70
2021/10/19 09:52:20;;;;;;;46.00;24.88;;;14.40;60.10;;;;;;6242659;23;20034;-69
2021/10/19 09:54:51;;;;;;;49.45;24.30;;;14.40;60.10;;;;;;6243150;23;20032;-73
2021/10/19 09:57:18;;;;;;;49.35;24.88;;;14.40;59.90;;;;;;6213278;23;20004;-68
2021/10/19 09:59:44;;;;;;;62.20;26.27;;;14.50;60.10;;;;;;6239775;23;20428;-67
2021/10/19 10:02:13;;;;;;;60.00;30.40;;;14.50;60.10;;;;;;6214923;23;20368;-68
2021/10/19 10:04:41;;;;;;;67.72;32.17;;;14.60;59.70;;;;;;6241769;23;20004;-63
2021/10/19 10:07:10;;;;;;;61.10;30.73;;;14.70;59.60;;;;;;6269724;22;20011;-65
2021/10/19 10:09:37;;;;;;;62.45;26.85;;;14.80;59.70;;;;;;6275433;22;20073;-67
2021/10/19 10:12:07;;;;;;;51.22;23.90;;;14.80;60.00;;;;;;6275010;22;20003;-68
2021/10/19 10:14:47;;;;;;;49.35;25.90;;;14.90;59.60;;;;;;6275197;22;20246;-66
2021/10/19 10:17:14;;;;;;;48.03;22.00;;;15.00;59.50;;;;;;6273112;22;20439;-67
2021/10/19 10:19:42;;;;;;;40.80;19.75;;;15.10;59.40;;;;;;6275282;22;20000;-64
2021/10/19 10:22:28;;;;;;;33.03;17.42;;;15.10;59.40;;;;;;6275518;22;20049;-70
2021/10/19 10:25:08;;;;;;;39.35;20.10;;;15.20;59.60;;;;;;6275466;22;20075;-70
2021/10/19 10:27:35;;;;;;;35.78;20.02;;;15.30;59.20;;;;;;6275243;22;20004;-68
2021/10/19 10:30:02;;;;;;;39.90;22.27;;;15.40;59.20;;;;;;6275474;22;20000;-63
2021/10/19 10:32:32;;;;;;;46.17;26.15;;;15.60;59.10;;;;;;6275338;22;20011;-62
2021/10/19 10:35:12;;;;;;;45.47;22.15;;;15.70;59.00;;;;;;6275662;22;19996;-63
2021/10/19 10:37:44;;;;;;;51.42;25.30;;;15.80;58.50;;;;;;6275602;22;20007;-63
2021/10/19 10:40:13;;;;;;;47.42;26.52;;;16.00;58.50;;;;;;6275124;22;19999;-70
2021/10/19 10:42:42;;;;;;;43.90;21.25;;;16.10;58.30;;;;;;6273900;22;20474;-70
2021/10/19 10:45:23;;;;;;;48.80;20.75;;;16.30;58.30;;;;;;6275223;22;20427;-71
2021/10/19 10:48:03;;;;;;;35.90;20.40;;;16.50;58.40;;;;;;6275215;22;20000;-69
2021/10/19 10:50:30;;;;;;;48.05;23.90;;;16.60;58.20;;;;;;6273696;22;20042;-69
2021/10/19 10:53:06;;;;;;;43.20;24.25;;;16.80;57.80;;;;;;6273186;22;20000;-64
2021/10/19 10:55:48;;;;;;;47.05;27.33;;;16.90;57.50;;;;;;6274759;22;20101;-70
2021/10/19 10:58:29;;;;;;;44.92;25.80;;;17.00;57.00;;;;;;6275237;22;20007;-67
2021/10/19 11:00:55;;;;;;;44.65;23.33;;;17.20;56.70;;;;;;6275239;22;20366;-67
2021/10/19 11:03:21;;;;;;;42.80;22.88;;;17.30;56.50;;;;;;6274874;22;20015;-67
2021/10/19 11:05:57;;;;;;;44.42;25.30;;;17.30;56.60;;;;;;6273310;22;20066;-68
2021/10/19 11:08:31;;;;;;;42.15;25.27;;;17.40;56.60;;;;;;6274908;22;20004;-67
2021/10/19 11:11:11;;;;;;;38.35;21.98;;;17.40;56.10;;;;;;6275011;22;20008;-66
2021/10/19 11:13:55;;;;;;;36.42;19.63;;;17.50;56.20;;;;;;6273517;22;20043;-66
2021/10/19 11:16:45;;;;;;;39.88;20.17;;;17.60;56.00;;;;;;6275130;22;20006;-65
2021/10/19 11:19:21;;;;;;;34.58;17.08;;;17.70;55.80;;;;;;6274837;22;19991;-65
2021/10/19 11:21:51;;;;;;;30.75;15.82;;;17.70;55.90;;;;;;6274478;22;20026;-69
2021/10/19 11:24:18;;;;;;;31.77;15.73;;;17.80;55.90;;;;;;6274979;22;19996;-69
2021/10/19 11:26:45;;;;;;;27.13;15.10;;;17.90;55.40;;;;;;6274553;22;20003;-64
2021/10/19 11:29:12;;;;;;;26.45;13.95;;;18.00;55.40;;;;;;6274384;22;20022;-72
2021/10/19 11:31:38;;;;;;;25.88;14.40;;;18.10;55.00;;;;;;6274243;22;20004;-69
2021/10/19 11:34:05;;;;;;;26.30;13.65;;;18.20;54.40;;;;;;6272769;22;20004;-73
2021/10/19 11:36:31;;;;;;;26.92;14.55;;;18.30;53.70;;;;;;6274154;22;20078;-65
2021/10/19 11:39:01;;;;;;;26.00;13.70;;;18.30;53.20;;;;;;6274786;22;20335;-69
2021/10/19 11:41:30;;;;;;;23.60;13.32;;;18.30;52.90;;;;;;6274490;22;20078;-70
2021/10/19 11:44:03;;;;;;;21.52;12.10;;;18.30;52.80;;;;;;6272388;22;20344;-69
2021/10/19 11:46:35;;;;;;;25.30;13.10;;;18.30;52.60;;;;;;6274668;22;20003;-65
2021/10/19 11:49:28;;;;;;;20.20;11.77;;;18.30;52.70;;;;;;6274079;22;20023;-71
2021/10/19 11:51:54;;;;;;;19.58;11.40;;;18.30;53.00;;;;;;6268405;22;20015;-73
2021/10/19 11:54:21;;;;;;;20.70;11.18;;;18.30;52.80;;;;;;6273880;22;20014;-70
2021/10/19 11:56:58;;;;;;;29.60;11.73;;;18.40;52.10;;;;;;6274223;22;20442;-71
2021/10/19 11:59:25;;;;;;;17.45;10.38;;;18.40;52.00;;;;;;6274283;22;20111;-71
2021/10/19 12:01:53;;;;;;;18.65;9.93;;;18.50;51.80;;;;;;6274423;22;20027;-70
2021/10/19 12:04:24;;;;;;;15.98;9.80;;;18.50;51.10;;;;;;6273820;22;20073;-66
2021/10/19 12:06:51;;;;;;;13.68;8.50;;;18.50;50.70;;;;;;6275176;22;19999;-67
2021/10/19 12:09:22;;;;;;;15.18;9.02;;;18.60;51.00;;;;;;6274478;22;20000;-67
2021/10/19 12:12:00;;;;;;;13.50;8.57;;;18.60;50.20;;;;;;6273806;22;19996;-68
2021/10/19 12:14:29;;;;;;;13.18;8.15;;;18.70;49.70;;;;;;6274119;22;20014;-66
2021/10/19 12:16:57;;;;;;;14.65;9.07;;;18.80;49.80;;;;;;6272595;22;20122;-68
2021/10/19 12:19:24;;;;;;;24.30;8.75;;;18.90;49.40;;;;;;6274219;22;20008;-71
2021/10/19 12:21:56;;;;;;;15.20;8.25;;;18.90;49.40;;;;;;6274260;22;20451;-65
2021/10/19 12:24:23;;;;;;;13.95;7.68;;;19.10;49.70;;;;;;6272837;22;20011;-66
2021/10/19 12:27:02;;;;;;;14.23;8.00;;;19.20;49.10;;;;;;6274146;22;20030;-65
2021/10/19 12:29:30;;;;;;;23.25;9.88;;;19.30;48.50;;;;;;6273982;22;20003;-67
2021/10/19 12:31:56;;;;;;;19.58;8.88;;;19.50;48.50;;;;;;6273618;22;20000;-68
2021/10/19 12:34:27;;;;;;;24.10;10.45;;;19.60;48.90;;;;;;6273910;22;19999;-64
2021/10/19 12:37:01;;;;;;;18.52;9.70;;;19.70;48.50;;;;;;6270270;22;20500;-67
2021/10/19 12:39:29;;;;;;;20.38;9.98;;;19.80;48.80;;;;;;6273170;22;20358;-67